Chavarria, Argentina
Current Conditions -  °F | °C
As of 12:00 PM on Wednesday 22 Oct 2014 (Local Time) from SARL Reporting Station
Clear Clear  
Wind Chill: 79°   Ceiling: Unl
Heat Index: 80°   Visibility: 6mi
Dew Point: 63°   Wind: 10mph
Humidity: 57%   Direction: 110°ESE
Pressure: 30.06"   Gusts: NA
Location:  28.95°S, 58.58°W
Report Text: SARL 221500Z 11009KT CAVOK 26/17 Q1018
Loading
Personal Weather Stations






























Interactive Weather Map
Tropical Storm Tracking
New forecast layout! Learn more

10-Day Weather Forecast

Advertisements
Track Severe Weather on mobile